sensor_id;sensor_type;location;lat;lon;timestamp;P1;durP1;ratioP1;P2;durP2;ratioP2
1507;SDS011;745;48.586;10.032;2023-07-22T00:01:15;5.40;;;3.63;;
1507;SDS011;745;48.586;10.032;2023-07-22T00:03:16;3.53;;;2.90;;
1507;SDS011;745;48.586;10.032;2023-07-22T00:05:16;3.93;;;3.07;;
1507;SDS011;745;48.586;10.032;2023-07-22T00:07:22;6.40;;;2.97;;
1507;SDS011;745;48.586;10.032;2023-07-22T00:09:22;5.73;;;3.63;;
1507;SDS011;745;48.586;10.032;2023-07-22T00:11:23;3.03;;;2.73;;
1507;SDS011;745;48.586;10.032;2023-07-22T00:13:23;3.47;;;3.17;;
1507;SDS011;745;48.586;10.032;2023-07-22T00:15:23;3.77;;;3.20;;
1507;SDS011;745;48.586;10.032;2023-07-22T00:17:25;3.58;;;2.85;;
1507;SDS011;745;48.586;10.032;2023-07-22T00:19:25;5.90;;;3.17;;
1507;SDS011;745;48.586;10.032;2023-07-22T00:21:25;3.00;;;2.70;;
1507;SDS011;745;48.586;10.032;2023-07-22T00:23:26;5.77;;;3.47;;
1507;SDS011;745;48.586;10.032;2023-07-22T00:25:26;6.33;;;3.57;;
1507;SDS011;745;48.586;10.032;2023-07-22T00:27:27;3.50;;;3.20;;
1507;SDS011;745;48.586;10.032;2023-07-22T00:29:27;3.60;;;3.27;;
1507;SDS011;745;48.586;10.032;2023-07-22T00:31:28;5.70;;;3.10;;
1507;SDS011;745;48.586;10.032;2023-07-22T00:33:28;3.67;;;3.33;;
1507;SDS011;745;48.586;10.032;2023-07-22T00:35:29;4.97;;;3.60;;
1507;SDS011;745;48.586;10.032;2023-07-22T00:37:29;6.10;;;3.40;;
1507;SDS011;745;48.586;10.032;2023-07-22T00:39:29;3.97;;;3.43;;
1507;SDS011;745;48.586;10.032;2023-07-22T00:41:30;3.90;;;3.47;;
1507;SDS011;745;48.586;10.032;2023-07-22T00:43:30;3.67;;;2.90;;
1507;SDS011;745;48.586;10.032;2023-07-22T00:45:30;4.10;;;3.37;;
1507;SDS011;745;48.586;10.032;2023-07-22T00:47:32;5.93;;;4.07;;
1507;SDS011;745;48.586;10.032;2023-07-22T00:49:33;5.13;;;3.42;;
1507;SDS011;745;48.586;10.032;2023-07-22T00:51:34;3.83;;;2.90;;
1507;SDS011;745;48.586;10.032;2023-07-22T00:53:34;4.73;;;3.40;;
1507;SDS011;745;48.586;10.032;2023-07-22T00:55:35;3.50;;;3.20;;
1507;SDS011;745;48.586;10.032;2023-07-22T00:57:36;3.80;;;3.40;;
1507;SDS011;745;48.586;10.032;2023-07-22T00:59:36;3.67;;;3.30;;
1507;SDS011;745;48.586;10.032;2023-07-22T01:01:36;3.27;;;2.87;;
1507;SDS011;745;48.586;10.032;2023-07-22T01:03:37;3.47;;;2.60;;
1507;SDS011;745;48.586;10.032;2023-07-22T01:05:37;3.57;;;3.10;;
1507;SDS011;745;48.586;10.032;2023-07-22T01:07:38;4.30;;;2.93;;
1507;SDS011;745;48.586;10.032;2023-07-22T01:09:39;5.43;;;3.30;;
1507;SDS011;745;48.586;10.032;2023-07-22T01:11:40;7.43;;;4.13;;
1507;SDS011;745;48.586;10.032;2023-07-22T01:13:40;11.20;;;4.10;;
1507;SDS011;745;48.586;10.032;2023-07-22T01:15:40;3.10;;;2.80;;
1507;SDS011;745;48.586;10.032;2023-07-22T01:17:41;3.67;;;2.93;;
1507;SDS011;745;48.586;10.032;2023-07-22T01:19:41;3.13;;;2.53;;
1507;SDS011;745;48.586;10.032;2023-07-22T01:21:43;4.07;;;3.25;;
1507;SDS011;745;48.586;10.032;2023-07-22T01:23:43;4.20;;;2.67;;
1507;SDS011;745;48.586;10.032;2023-07-22T01:25:43;3.40;;;2.57;;
1507;SDS011;745;48.586;10.032;2023-07-22T01:27:44;3.47;;;2.87;;
1507;SDS011;745;48.586;10.032;2023-07-22T01:29:45;3.67;;;3.28;;
1507;SDS011;745;48.586;10.032;2023-07-22T01:31:46;3.17;;;2.87;;
1507;SDS011;745;48.586;10.032;2023-07-22T01:33:48;4.82;;;3.53;;
1507;SDS011;745;48.586;10.032;2023-07-22T01:35:48;3.50;;;3.20;;
1507;SDS011;745;48.586;10.032;2023-07-22T01:37:48;4.30;;;3.43;;
1507;SDS011;745;48.586;10.032;2023-07-22T01:39:50;4.00;;;3.55;;
1507;SDS011;745;48.586;10.032;2023-07-22T01:41:50;4.43;;;2.90;;
1507;SDS011;745;48.586;10.032;2023-07-22T01:43:51;3.27;;;2.97;;
1507;SDS011;745;48.586;10.032;2023-07-22T01:45:51;3.23;;;2.93;;
1507;SDS011;745;48.586;10.032;2023-07-22T01:47:53;5.65;;;3.03;;
1507;SDS011;745;48.586;10.032;2023-07-22T01:49:53;3.77;;;2.80;;
1507;SDS011;745;48.586;10.032;2023-07-22T01:51:53;3.43;;;2.73;;
1507;SDS011;745;48.586;10.032;2023-07-22T01:53:54;3.83;;;2.93;;
1507;SDS011;745;48.586;10.032;2023-07-22T01:55:56;3.95;;;3.13;;
1507;SDS011;745;48.586;10.032;2023-07-22T01:57:57;3.30;;;3.00;;
1507;SDS011;745;48.586;10.032;2023-07-22T01:59:57;5.20;;;2.67;;
1507;SDS011;745;48.586;10.032;2023-07-22T02:01:57;3.50;;;3.03;;
1507;SDS011;745;48.586;10.032;2023-07-22T02:03:57;5.00;;;3.00;;
1507;SDS011;745;48.586;10.032;2023-07-22T02:06:02;3.10;;;2.90;;
1507;SDS011;745;48.586;10.032;2023-07-22T02:08:03;3.20;;;2.90;;
1507;SDS011;745;48.586;10.032;2023-07-22T02:10:03;2.93;;;2.70;;
1507;SDS011;745;48.586;10.032;2023-07-22T02:12:05;4.50;;;2.80;;
1507;SDS011;745;48.586;10.032;2023-07-22T02:14:07;3.15;;;2.85;;
1507;SDS011;745;48.586;10.032;2023-07-22T02:16:07;3.70;;;2.70;;
1507;SDS011;745;48.586;10.032;2023-07-22T02:18:11;2.60;;;2.40;;
1507;SDS011;745;48.586;10.032;2023-07-22T02:20:11;3.33;;;2.77;;
1507;SDS011;745;48.586;10.032;2023-07-22T02:22:12;3.73;;;3.07;;
1507;SDS011;745;48.586;10.032;2023-07-22T02:24:13;3.37;;;2.60;;
1507;SDS011;745;48.586;10.032;2023-07-22T02:26:14;3.40;;;2.75;;
1507;SDS011;745;48.586;10.032;2023-07-22T02:28:15;2.93;;;2.63;;
1507;SDS011;745;48.586;10.032;2023-07-22T02:30:15;3.17;;;2.87;;
1507;SDS011;745;48.586;10.032;2023-07-22T02:32:16;2.90;;;2.70;;
1507;SDS011;745;48.586;10.032;2023-07-22T02:34:16;3.33;;;3.03;;
1507;SDS011;745;48.586;10.032;2023-07-22T02:36:16;3.27;;;2.97;;
1507;SDS011;745;48.586;10.032;2023-07-22T02:38:17;4.33;;;2.90;;
1507;SDS011;745;48.586;10.032;2023-07-22T02:40:17;4.10;;;3.10;;
1507;SDS011;745;48.586;10.032;2023-07-22T02:42:18;4.93;;;3.00;;
1507;SDS011;745;48.586;10.032;2023-07-22T02:44:18;4.83;;;3.30;;
1507;SDS011;745;48.586;10.032;2023-07-22T02:46:18;5.23;;;3.40;;
1507;SDS011;745;48.586;10.032;2023-07-22T02:48:19;4.17;;;3.27;;
1507;SDS011;745;48.586;10.032;2023-07-22T02:50:19;3.70;;;3.40;;
1507;SDS011;745;48.586;10.032;2023-07-22T02:52:19;3.70;;;2.73;;
1507;SDS011;745;48.586;10.032;2023-07-22T02:54:20;3.37;;;2.73;;
1507;SDS011;745;48.586;10.032;2023-07-22T02:56:20;3.00;;;2.70;;
1507;SDS011;745;48.586;10.032;2023-07-22T02:58:21;4.00;;;3.50;;
1507;SDS011;745;48.586;10.032;2023-07-22T03:00:21;3.97;;;3.00;;
1507;SDS011;745;48.586;10.032;2023-07-22T03:02:24;2.80;;;2.50;;
1507;SDS011;745;48.586;10.032;2023-07-22T03:04:25;4.03;;;3.00;;
1507;SDS011;745;48.586;10.032;2023-07-22T03:06:25;3.07;;;2.70;;
1507;SDS011;745;48.586;10.032;2023-07-22T03:08:26;3.50;;;2.60;;
1507;SDS011;745;48.586;10.032;2023-07-22T03:10:26;3.60;;;3.03;;
1507;SDS011;745;48.586;10.032;2023-07-22T03:12:26;3.40;;;3.10;;
1507;SDS011;745;48.586;10.032;2023-07-22T03:14:27;4.30;;;2.83;;
1507;SDS011;745;48.586;10.032;2023-07-22T03:16:27;3.90;;;3.30;;
1507;SDS011;745;48.586;10.032;2023-07-22T03:18:27;3.40;;;3.10;;
1507;SDS011;745;48.586;10.032;2023-07-22T03:20:28;3.27;;;3.00;;
1507;SDS011;745;48.586;10.032;2023-07-22T03:22:28;2.80;;;2.50;;
1507;SDS011;745;48.586;10.032;2023-07-22T03:24:28;2.77;;;2.57;;
1507;SDS011;745;48.586;10.032;2023-07-22T03:26:29;3.47;;;3.17;;
1507;SDS011;745;48.586;10.032;2023-07-22T03:28:29;3.23;;;2.80;;
1507;SDS011;745;48.586;10.032;2023-07-22T03:30:30;4.00;;;3.20;;
1507;SDS011;745;48.586;10.032;2023-07-22T03:32:30;3.10;;;2.63;;
1507;SDS011;745;48.586;10.032;2023-07-22T03:34:31;3.20;;;2.90;;
1507;SDS011;745;48.586;10.032;2023-07-22T03:36:31;3.47;;;2.83;;
1507;SDS011;745;48.586;10.032;2023-07-22T03:38:34;3.30;;;3.00;;
1507;SDS011;745;48.586;10.032;2023-07-22T03:40:34;3.27;;;2.97;;
1507;SDS011;745;48.586;10.032;2023-07-22T03:42:35;3.10;;;2.60;;
1507;SDS011;745;48.586;10.032;2023-07-22T03:44:35;4.10;;;3.10;;
1507;SDS011;745;48.586;10.032;2023-07-22T03:46:36;3.20;;;2.83;;
1507;SDS011;745;48.586;10.032;2023-07-22T03:48:36;2.97;;;2.67;;
1507;SDS011;745;48.586;10.032;2023-07-22T03:50:36;4.27;;;3.00;;
1507;SDS011;745;48.586;10.032;2023-07-22T03:52:37;4.50;;;3.20;;
1507;SDS011;745;48.586;10.032;2023-07-22T03:54:38;4.20;;;3.40;;
1507;SDS011;745;48.586;10.032;2023-07-22T03:56:40;3.20;;;2.90;;
1507;SDS011;745;48.586;10.032;2023-07-22T03:58:41;3.75;;;3.22;;
1507;SDS011;745;48.586;10.032;2023-07-22T04:00:41;3.57;;;3.03;;
1507;SDS011;745;48.586;10.032;2023-07-22T04:02:42;5.53;;;3.50;;
1507;SDS011;745;48.586;10.032;2023-07-22T04:04:42;9.33;;;3.03;;
1507;SDS011;745;48.586;10.032;2023-07-22T04:06:42;3.20;;;2.90;;
1507;SDS011;745;48.586;10.032;2023-07-22T04:08:43;4.23;;;3.53;;
1507;SDS011;745;48.586;10.032;2023-07-22T04:10:50;4.07;;;3.00;;
1507;SDS011;745;48.586;10.032;2023-07-22T04:12:51;3.78;;;3.42;;
1507;SDS011;745;48.586;10.032;2023-07-22T04:14:52;4.40;;;3.23;;
1507;SDS011;745;48.586;10.032;2023-07-22T04:16:52;3.53;;;3.23;;
1507;SDS011;745;48.586;10.032;2023-07-22T04:18:52;4.77;;;3.53;;
1507;SDS011;745;48.586;10.032;2023-07-22T04:20:56;3.47;;;3.17;;
1507;SDS011;745;48.586;10.032;2023-07-22T04:22:57;4.50;;;3.55;;
1507;SDS011;745;48.586;10.032;2023-07-22T04:24:57;3.83;;;3.53;;
1507;SDS011;745;48.586;10.032;2023-07-22T04:26:58;3.50;;;3.17;;
1507;SDS011;745;48.586;10.032;2023-07-22T04:29:00;4.13;;;3.73;;
1507;SDS011;745;48.586;10.032;2023-07-22T04:31:00;6.30;;;3.75;;
1507;SDS011;745;48.586;10.032;2023-07-22T04:33:01;6.83;;;4.50;;
1507;SDS011;745;48.586;10.032;2023-07-22T04:35:02;6.45;;;4.78;;
1507;SDS011;745;48.586;10.032;2023-07-22T04:37:03;3.70;;;3.37;;
1507;SDS011;745;48.586;10.032;2023-07-22T04:39:04;4.07;;;3.67;;
1507;SDS011;745;48.586;10.032;2023-07-22T04:41:07;4.40;;;3.70;;
1507;SDS011;745;48.586;10.032;2023-07-22T04:43:07;3.50;;;3.20;;
1507;SDS011;745;48.586;10.032;2023-07-22T04:45:08;3.57;;;3.27;;
1507;SDS011;745;48.586;10.032;2023-07-22T04:47:09;6.15;;;3.20;;
1507;SDS011;745;48.586;10.032;2023-07-22T04:49:10;4.20;;;3.80;;
1507;SDS011;745;48.586;10.032;2023-07-22T04:51:11;4.43;;;2.97;;
1507;SDS011;745;48.586;10.032;2023-07-22T04:53:12;2.97;;;2.77;;
1507;SDS011;745;48.586;10.032;2023-07-22T04:55:15;3.65;;;3.35;;
1507;SDS011;745;48.586;10.032;2023-07-22T04:57:15;2.90;;;2.60;;
1507;SDS011;745;48.586;10.032;2023-07-22T04:59:17;3.67;;;2.95;;
1507;SDS011;745;48.586;10.032;2023-07-22T05:01:17;3.20;;;2.90;;
1507;SDS011;745;48.586;10.032;2023-07-22T05:03:18;3.27;;;2.87;;
1507;SDS011;745;48.586;10.032;2023-07-22T05:05:18;3.37;;;3.10;;
1507;SDS011;745;48.586;10.032;2023-07-22T05:07:18;3.77;;;2.70;;
1507;SDS011;745;48.586;10.032;2023-07-22T05:09:19;4.93;;;2.73;;
1507;SDS011;745;48.586;10.032;2023-07-22T05:11:19;3.80;;;2.97;;
1507;SDS011;745;48.586;10.032;2023-07-22T05:13:19;3.50;;;2.67;;
1507;SDS011;745;48.586;10.032;2023-07-22T05:15:20;4.30;;;3.23;;
1507;SDS011;745;48.586;10.032;2023-07-22T05:17:20;3.30;;;2.70;;
1507;SDS011;745;48.586;10.032;2023-07-22T05:19:21;2.87;;;2.33;;
1507;SDS011;745;48.586;10.032;2023-07-22T05:21:21;3.50;;;3.17;;
1507;SDS011;745;48.586;10.032;2023-07-22T05:23:21;3.63;;;2.70;;
1507;SDS011;745;48.586;10.032;2023-07-22T05:25:22;4.10;;;2.77;;
1507;SDS011;745;48.586;10.032;2023-07-22T05:27:22;3.83;;;3.30;;
1507;SDS011;745;48.586;10.032;2023-07-22T05:29:22;3.20;;;2.90;;
1507;SDS011;745;48.586;10.032;2023-07-22T05:31:23;3.63;;;3.27;;
1507;SDS011;745;48.586;10.032;2023-07-22T05:33:23;4.53;;;3.87;;
1507;SDS011;745;48.586;10.032;2023-07-22T05:35:23;5.03;;;3.93;;
1507;SDS011;745;48.586;10.032;2023-07-22T05:37:24;4.30;;;3.90;;
1507;SDS011;745;48.586;10.032;2023-07-22T05:39:25;4.50;;;3.90;;
1507;SDS011;745;48.586;10.032;2023-07-22T05:41:26;4.10;;;3.70;;
1507;SDS011;745;48.586;10.032;2023-07-22T05:43:26;4.37;;;3.53;;
1507;SDS011;745;48.586;10.032;2023-07-22T05:45:27;3.30;;;3.00;;
1507;SDS011;745;48.586;10.032;2023-07-22T05:47:27;3.67;;;3.27;;
1507;SDS011;745;48.586;10.032;2023-07-22T05:49:27;3.47;;;3.00;;
1507;SDS011;745;48.586;10.032;2023-07-22T05:51:28;4.03;;;2.90;;
1507;SDS011;745;48.586;10.032;2023-07-22T05:53:28;5.37;;;3.27;;
1507;SDS011;745;48.586;10.032;2023-07-22T05:55:28;5.10;;;3.50;;
1507;SDS011;745;48.586;10.032;2023-07-22T05:57:29;3.63;;;3.10;;
1507;SDS011;745;48.586;10.032;2023-07-22T05:59:30;4.53;;;2.73;;
1507;SDS011;745;48.586;10.032;2023-07-22T06:01:30;3.50;;;3.20;;
1507;SDS011;745;48.586;10.032;2023-07-22T06:03:31;3.47;;;3.07;;
1507;SDS011;745;48.586;10.032;2023-07-22T06:05:31;3.60;;;3.17;;
1507;SDS011;745;48.586;10.032;2023-07-22T06:07:31;3.23;;;2.93;;
1507;SDS011;745;48.586;10.032;2023-07-22T06:09:32;3.37;;;3.03;;
1507;SDS011;745;48.586;10.032;2023-07-22T06:11:32;4.13;;;3.10;;
1507;SDS011;745;48.586;10.032;2023-07-22T06:13:32;3.27;;;2.97;;
1507;SDS011;745;48.586;10.032;2023-07-22T06:15:33;5.80;;;3.10;;
1507;SDS011;745;48.586;10.032;2023-07-22T06:17:33;5.43;;;3.10;;
1507;SDS011;745;48.586;10.032;2023-07-22T06:19:33;3.23;;;2.90;;
1507;SDS011;745;48.586;10.032;2023-07-22T06:21:34;4.37;;;3.23;;
1507;SDS011;745;48.586;10.032;2023-07-22T06:23:34;6.10;;;3.20;;
1507;SDS011;745;48.586;10.032;2023-07-22T06:25:34;3.60;;;3.00;;
1507;SDS011;745;48.586;10.032;2023-07-22T06:27:35;3.50;;;3.20;;
1507;SDS011;745;48.586;10.032;2023-07-22T06:29:35;3.50;;;3.20;;
1507;SDS011;745;48.586;10.032;2023-07-22T06:31:36;3.10;;;2.63;;
1507;SDS011;745;48.586;10.032;2023-07-22T06:33:36;3.27;;;2.97;;
1507;SDS011;745;48.586;10.032;2023-07-22T06:35:36;3.83;;;3.10;;
1507;SDS011;745;48.586;10.032;2023-07-22T06:37:36;2.90;;;2.70;;
1507;SDS011;745;48.586;10.032;2023-07-22T06:39:37;3.70;;;3.27;;
1507;SDS011;745;48.586;10.032;2023-07-22T06:41:37;2.93;;;2.70;;
1507;SDS011;745;48.586;10.032;2023-07-22T06:43:38;3.80;;;3.00;;
1507;SDS011;745;48.586;10.032;2023-07-22T06:45:38;4.33;;;3.60;;
1507;SDS011;745;48.586;10.032;2023-07-22T06:47:38;3.07;;;2.73;;
1507;SDS011;745;48.586;10.032;2023-07-22T06:49:39;3.90;;;2.90;;
1507;SDS011;745;48.586;10.032;2023-07-22T06:51:40;3.80;;;2.70;;
1507;SDS011;745;48.586;10.032;2023-07-22T06:53:41;3.50;;;3.03;;
1507;SDS011;745;48.586;10.032;2023-07-22T06:55:50;3.70;;;3.17;;
1507;SDS011;745;48.586;10.032;2023-07-22T06:57:51;3.47;;;3.10;;
1507;SDS011;745;48.586;10.032;2023-07-22T06:59:55;3.33;;;3.03;;
1507;SDS011;745;48.586;10.032;2023-07-22T07:01:55;3.10;;;2.80;;
1507;SDS011;745;48.586;10.032;2023-07-22T07:03:55;3.33;;;3.00;;
1507;SDS011;745;48.586;10.032;2023-07-22T07:05:56;3.17;;;2.83;;
1507;SDS011;745;48.586;10.032;2023-07-22T07:07:57;3.50;;;3.03;;
1507;SDS011;745;48.586;10.032;2023-07-22T07:09:57;2.80;;;2.50;;
1507;SDS011;745;48.586;10.032;2023-07-22T07:11:58;3.33;;;2.87;;
1507;SDS011;745;48.586;10.032;2023-07-22T07:13:58;3.37;;;2.80;;
1507;SDS011;745;48.586;10.032;2023-07-22T07:16:09;2.97;;;2.70;;
1507;SDS011;745;48.586;10.032;2023-07-22T07:18:28;2.93;;;2.63;;
1507;SDS011;745;48.586;10.032;2023-07-22T07:20:28;4.30;;;3.40;;
1507;SDS011;745;48.586;10.032;2023-07-22T07:22:29;2.90;;;2.60;;
1507;SDS011;745;48.586;10.032;2023-07-22T07:24:29;3.20;;;2.60;;
1507;SDS011;745;48.586;10.032;2023-07-22T07:26:29;5.93;;;3.13;;
1507;SDS011;745;48.586;10.032;2023-07-22T07:28:30;3.17;;;2.80;;
1507;SDS011;745;48.586;10.032;2023-07-22T07:30:30;4.10;;;3.27;;
1507;SDS011;745;48.586;10.032;2023-07-22T07:32:31;4.10;;;2.73;;
1507;SDS011;745;48.586;10.032;2023-07-22T07:34:31;2.90;;;2.60;;
1507;SDS011;745;48.586;10.032;2023-07-22T07:36:33;4.13;;;2.80;;
1507;SDS011;745;48.586;10.032;2023-07-22T07:38:33;2.80;;;2.60;;
1507;SDS011;745;48.586;10.032;2023-07-22T07:40:34;2.90;;;2.57;;
1507;SDS011;745;48.586;10.032;2023-07-22T07:42:34;3.00;;;2.20;;
1507;SDS011;745;48.586;10.032;2023-07-22T07:44:34;3.40;;;2.57;;
1507;SDS011;745;48.586;10.032;2023-07-22T07:46:34;2.93;;;2.60;;
1507;SDS011;745;48.586;10.032;2023-07-22T07:48:35;2.50;;;2.30;;
1507;SDS011;745;48.586;10.032;2023-07-22T07:50:35;2.20;;;2.00;;
1507;SDS011;745;48.586;10.032;2023-07-22T07:52:36;4.00;;;2.40;;
1507;SDS011;745;48.586;10.032;2023-07-22T07:54:38;3.30;;;3.00;;
1507;SDS011;745;48.586;10.032;2023-07-22T07:56:38;2.33;;;2.13;;
1507;SDS011;745;48.586;10.032;2023-07-22T07:58:39;2.87;;;2.57;;
1507;SDS011;745;48.586;10.032;2023-07-22T08:00:39;3.80;;;2.40;;
1507;SDS011;745;48.586;10.032;2023-07-22T08:02:40;2.93;;;2.60;;
1507;SDS011;745;48.586;10.032;2023-07-22T08:04:40;2.87;;;2.57;;
1507;SDS011;745;48.586;10.032;2023-07-22T08:06:41;3.60;;;2.40;;
1507;SDS011;745;48.586;10.032;2023-07-22T08:08:42;3.77;;;2.40;;
1507;SDS011;745;48.586;10.032;2023-07-22T08:10:43;3.80;;;2.77;;
1507;SDS011;745;48.586;10.032;2023-07-22T08:12:44;4.93;;;2.63;;
1507;SDS011;745;48.586;10.032;2023-07-22T08:14:44;2.33;;;2.13;;
1507;SDS011;745;48.586;10.032;2023-07-22T08:16:45;3.00;;;2.30;;
1507;SDS011;745;48.586;10.032;2023-07-22T08:18:45;2.40;;;2.20;;
1507;SDS011;745;48.586;10.032;2023-07-22T08:20:47;3.00;;;2.70;;
1507;SDS011;745;48.586;10.032;2023-07-22T08:22:48;3.10;;;2.40;;
1507;SDS011;745;48.586;10.032;2023-07-22T08:24:48;2.83;;;2.53;;
1507;SDS011;745;48.586;10.032;2023-07-22T08:26:48;2.23;;;2.03;;
1507;SDS011;745;48.586;10.032;2023-07-22T08:28:48;2.00;;;1.80;;
1507;SDS011;745;48.586;10.032;2023-07-22T08:30:49;2.63;;;2.20;;
1507;SDS011;745;48.586;10.032;2023-07-22T08:32:49;2.60;;;2.20;;
1507;SDS011;745;48.586;10.032;2023-07-22T08:34:49;2.20;;;2.00;;
1507;SDS011;745;48.586;10.032;2023-07-22T08:36:50;2.63;;;2.10;;
1507;SDS011;745;48.586;10.032;2023-07-22T08:38:50;2.43;;;2.23;;
1507;SDS011;745;48.586;10.032;2023-07-22T08:40:50;3.33;;;2.40;;
1507;SDS011;745;48.586;10.032;2023-07-22T08:42:51;5.73;;;2.73;;
1507;SDS011;745;48.586;10.032;2023-07-22T08:44:53;3.77;;;3.00;;
1507;SDS011;745;48.586;10.032;2023-07-22T08:46:57;2.47;;;1.87;;
1507;SDS011;745;48.586;10.032;2023-07-22T08:48:59;2.50;;;2.17;;
1507;SDS011;745;48.586;10.032;2023-07-22T08:51:04;3.40;;;2.30;;
1507;SDS011;745;48.586;10.032;2023-07-22T08:53:06;2.30;;;2.10;;
1507;SDS011;745;48.586;10.032;2023-07-22T08:55:07;2.23;;;2.03;;
1507;SDS011;745;48.586;10.032;2023-07-22T08:57:08;5.20;;;2.80;;
1507;SDS011;745;48.586;10.032;2023-07-22T08:59:09;3.10;;;2.50;;
1507;SDS011;745;48.586;10.032;2023-07-22T09:01:10;2.27;;;2.03;;
1507;SDS011;745;48.586;10.032;2023-07-22T09:03:11;2.27;;;2.07;;
1507;SDS011;745;48.586;10.032;2023-07-22T09:05:11;3.60;;;2.10;;
1507;SDS011;745;48.586;10.032;2023-07-22T09:07:11;3.17;;;2.37;;
1507;SDS011;745;48.586;10.032;2023-07-22T09:09:12;3.90;;;2.60;;
1507;SDS011;745;48.586;10.032;2023-07-22T09:11:12;2.60;;;2.20;;
1507;SDS011;745;48.586;10.032;2023-07-22T09:13:13;3.37;;;2.60;;
1507;SDS011;745;48.586;10.032;2023-07-22T09:15:14;2.77;;;2.53;;
1507;SDS011;745;48.586;10.032;2023-07-22T09:17:15;2.30;;;2.10;;
1507;SDS011;745;48.586;10.032;2023-07-22T09:19:15;3.60;;;2.40;;
1507;SDS011;745;48.586;10.032;2023-07-22T09:21:17;2.77;;;2.57;;
1507;SDS011;745;48.586;10.032;2023-07-22T09:23:17;3.60;;;2.37;;
1507;SDS011;745;48.586;10.032;2023-07-22T09:25:18;2.57;;;2.37;;
1507;SDS011;745;48.586;10.032;2023-07-22T09:27:32;2.33;;;2.13;;
1507;SDS011;745;48.586;10.032;2023-07-22T09:29:34;3.73;;;2.40;;
1507;SDS011;745;48.586;10.032;2023-07-22T09:31:52;2.80;;;2.50;;
1507;SDS011;745;48.586;10.032;2023-07-22T09:33:53;2.33;;;2.13;;
1507;SDS011;745;48.586;10.032;2023-07-22T09:35:56;2.83;;;2.43;;
1507;SDS011;745;48.586;10.032;2023-07-22T09:37:58;3.00;;;2.53;;
1507;SDS011;745;48.586;10.032;2023-07-22T09:39:58;2.83;;;2.43;;
1507;SDS011;745;48.586;10.032;2023-07-22T09:41:59;3.20;;;2.57;;
1507;SDS011;745;48.586;10.032;2023-07-22T09:44:02;2.70;;;2.50;;
1507;SDS011;745;48.586;10.032;2023-07-22T09:46:09;3.40;;;2.20;;
1507;SDS011;745;48.586;10.032;2023-07-22T09:48:10;2.87;;;2.50;;
1507;SDS011;745;48.586;10.032;2023-07-22T09:50:11;3.57;;;2.50;;
1507;SDS011;745;48.586;10.032;2023-07-22T09:52:16;2.67;;;2.47;;
1507;SDS011;745;48.586;10.032;2023-07-22T09:54:16;2.73;;;2.50;;
1507;SDS011;745;48.586;10.032;2023-07-22T09:56:17;3.60;;;2.47;;
1507;SDS011;745;48.586;10.032;2023-07-22T09:58:17;3.93;;;2.57;;
1507;SDS011;745;48.586;10.032;2023-07-22T10:00:18;2.80;;;2.60;;
1507;SDS011;745;48.586;10.032;2023-07-22T10:02:21;3.50;;;2.83;;
1507;SDS011;745;48.586;10.032;2023-07-22T10:04:22;2.73;;;2.50;;
1507;SDS011;745;48.586;10.032;2023-07-22T10:06:28;3.43;;;2.33;;
1507;SDS011;745;48.586;10.032;2023-07-22T10:08:29;2.60;;;2.40;;
1507;SDS011;745;48.586;10.032;2023-07-22T10:10:30;2.50;;;2.27;;
1507;SDS011;745;48.586;10.032;2023-07-22T10:12:34;2.70;;;2.50;;
1507;SDS011;745;48.586;10.032;2023-07-22T10:14:35;2.80;;;2.43;;
1507;SDS011;745;48.586;10.032;2023-07-22T10:16:36;2.60;;;2.40;;
1507;SDS011;745;48.586;10.032;2023-07-22T10:18:36;2.67;;;2.47;;
1507;SDS011;745;48.586;10.032;2023-07-22T10:20:38;2.40;;;2.20;;
1507;SDS011;745;48.586;10.032;2023-07-22T10:22:39;2.73;;;2.40;;
1507;SDS011;745;48.586;10.032;2023-07-22T10:24:41;2.87;;;2.67;;
1507;SDS011;745;48.586;10.032;2023-07-22T10:26:43;2.47;;;2.20;;
1507;SDS011;745;48.586;10.032;2023-07-22T10:28:46;2.97;;;2.67;;
1507;SDS011;745;48.586;10.032;2023-07-22T10:30:47;3.43;;;2.60;;
1507;SDS011;745;48.586;10.032;2023-07-22T10:32:51;2.63;;;2.43;;
1507;SDS011;745;48.586;10.032;2023-07-22T10:34:52;2.40;;;2.20;;
1507;SDS011;745;48.586;10.032;2023-07-22T10:36:54;2.47;;;2.20;;
1507;SDS011;745;48.586;10.032;2023-07-22T10:38:56;2.50;;;2.30;;
1507;SDS011;745;48.586;10.032;2023-07-22T10:40:57;3.20;;;2.70;;
1507;SDS011;745;48.586;10.032;2023-07-22T10:43:09;2.40;;;2.20;;
1507;SDS011;745;48.586;10.032;2023-07-22T10:47:33;2.90;;;2.63;;
1507;SDS011;745;48.586;10.032;2023-07-22T10:49:44;3.23;;;3.00;;
1507;SDS011;745;48.586;10.032;2023-07-22T10:51:47;2.70;;;2.50;;
1507;SDS011;745;48.586;10.032;2023-07-22T10:53:49;2.60;;;2.40;;
1507;SDS011;745;48.586;10.032;2023-07-22T10:58:11;2.60;;;2.30;;
1507;SDS011;745;48.586;10.032;2023-07-22T11:00:17;3.53;;;2.60;;
1507;SDS011;745;48.586;10.032;2023-07-22T11:02:25;3.30;;;2.70;;
1507;SDS011;745;48.586;10.032;2023-07-22T11:04:27;2.40;;;2.20;;
1507;SDS011;745;48.586;10.032;2023-07-22T11:06:31;2.60;;;2.40;;
1507;SDS011;745;48.586;10.032;2023-07-22T11:08:35;3.07;;;2.77;;
1507;SDS011;745;48.586;10.032;2023-07-22T11:10:51;2.50;;;2.30;;
1507;SDS011;745;48.586;10.032;2023-07-22T11:12:53;2.40;;;2.20;;
1507;SDS011;745;48.586;10.032;2023-07-22T11:15:02;2.80;;;2.60;;
1507;SDS011;745;48.586;10.032;2023-07-22T11:17:05;2.50;;;2.30;;
1507;SDS011;745;48.586;10.032;2023-07-22T11:19:08;4.40;;;2.20;;
1507;SDS011;745;48.586;10.032;2023-07-22T11:21:11;3.60;;;2.57;;
1507;SDS011;745;48.586;10.032;2023-07-22T11:23:12;3.00;;;2.17;;
1507;SDS011;745;48.586;10.032;2023-07-22T11:25:18;2.47;;;2.27;;
1507;SDS011;745;48.586;10.032;2023-07-22T11:27:19;2.07;;;1.87;;
1507;SDS011;745;48.586;10.032;2023-07-22T11:29:19;2.43;;;2.13;;
1507;SDS011;745;48.586;10.032;2023-07-22T11:31:20;2.50;;;2.30;;
1507;SDS011;745;48.586;10.032;2023-07-22T11:33:20;2.33;;;2.13;;
1507;SDS011;745;48.586;10.032;2023-07-22T11:35:21;2.50;;;2.20;;
1507;SDS011;745;48.586;10.032;2023-07-22T11:37:22;2.40;;;2.20;;
1507;SDS011;745;48.586;10.032;2023-07-22T11:39:23;2.47;;;2.20;;
1507;SDS011;745;48.586;10.032;2023-07-22T11:41:25;2.60;;;2.27;;
1507;SDS011;745;48.586;10.032;2023-07-22T11:43:25;2.97;;;2.20;;
1507;SDS011;745;48.586;10.032;2023-07-22T11:45:26;2.60;;;2.40;;
1507;SDS011;745;48.586;10.032;2023-07-22T11:47:29;3.03;;;2.60;;
1507;SDS011;745;48.586;10.032;2023-07-22T11:49:34;2.33;;;2.17;;
1507;SDS011;745;48.586;10.032;2023-07-22T11:51:41;2.38;;;2.17;;
1507;SDS011;745;48.586;10.032;2023-07-22T11:53:43;2.73;;;2.43;;
1507;SDS011;745;48.586;10.032;2023-07-22T11:55:45;2.83;;;2.17;;
1507;SDS011;745;48.586;10.032;2023-07-22T11:57:51;2.20;;;2.00;;
1507;SDS011;745;48.586;10.032;2023-07-22T11:59:53;3.30;;;2.03;;
1507;SDS011;745;48.586;10.032;2023-07-22T12:01:54;2.87;;;2.57;;
1507;SDS011;745;48.586;10.032;2023-07-22T12:03:55;2.43;;;2.23;;
1507;SDS011;745;48.586;10.032;2023-07-22T12:05:56;4.87;;;2.90;;
1507;SDS011;745;48.586;10.032;2023-07-22T12:08:01;2.93;;;2.60;;
1507;SDS011;745;48.586;10.032;2023-07-22T12:10:04;2.43;;;2.23;;
1507;SDS011;745;48.586;10.032;2023-07-22T12:12:07;2.60;;;2.40;;
1507;SDS011;745;48.586;10.032;2023-07-22T12:14:11;4.90;;;2.40;;
1507;SDS011;745;48.586;10.032;2023-07-22T12:16:12;4.50;;;2.73;;
1507;SDS011;745;48.586;10.032;2023-07-22T12:18:14;2.90;;;2.60;;
1507;SDS011;745;48.586;10.032;2023-07-22T12:20:14;3.13;;;2.80;;
1507;SDS011;745;48.586;10.032;2023-07-22T12:22:15;3.13;;;2.60;;
1507;SDS011;745;48.586;10.032;2023-07-22T12:24:15;2.50;;;2.30;;
1507;SDS011;745;48.586;10.032;2023-07-22T12:26:16;3.70;;;2.97;;
1507;SDS011;745;48.586;10.032;2023-07-22T12:28:16;2.70;;;2.50;;
1507;SDS011;745;48.586;10.032;2023-07-22T12:30:17;2.80;;;2.60;;
1507;SDS011;745;48.586;10.032;2023-07-22T12:32:17;3.93;;;2.60;;
1507;SDS011;745;48.586;10.032;2023-07-22T12:34:18;3.07;;;2.77;;
1507;SDS011;745;48.586;10.032;2023-07-22T12:36:18;2.40;;;2.20;;
1507;SDS011;745;48.586;10.032;2023-07-22T12:38:18;2.80;;;2.50;;